createdAt,value
2023-01-19T00:00:57.661Z,8.43
2023-01-19T00:03:24.768Z,9.23
2023-01-19T00:05:52.880Z,7.93
2023-01-19T00:08:20.006Z,7.93
2023-01-19T00:10:51.333Z,10.15
2023-01-19T00:13:18.851Z,7.70
2023-01-19T00:15:46.045Z,9.77
2023-01-19T00:18:13.178Z,9.65
2023-01-19T00:20:40.989Z,10.25
2023-01-19T00:23:08.531Z,8.38
2023-01-19T00:25:42.883Z,8.70
2023-01-19T00:28:15.138Z,8.45
2023-01-19T00:30:42.879Z,8.93
2023-01-19T00:33:11.560Z,11.70
2023-01-19T00:35:38.707Z,10.00
2023-01-19T00:38:06.503Z,8.55
2023-01-19T00:40:33.584Z,9.35
2023-01-19T00:43:01.222Z,9.73
2023-01-19T00:45:28.803Z,7.95
2023-01-19T00:47:57.476Z,9.23
2023-01-19T00:50:26.644Z,9.38
2023-01-19T00:52:54.909Z,9.80
2023-01-19T00:55:22.940Z,8.43
2023-01-19T00:57:50.501Z,9.55
2023-01-19T01:00:20.095Z,9.75
2023-01-19T01:02:48.575Z,9.98
2023-01-19T01:05:16.572Z,8.55
2023-01-19T01:07:45.483Z,10.63
2023-01-19T01:10:15.653Z,8.80
2023-01-19T01:12:53.612Z,9.60
2023-01-19T01:15:26.513Z,11.73
2023-01-19T01:17:53.881Z,12.10
2023-01-19T01:20:27.267Z,10.30
2023-01-19T01:22:55.586Z,10.77
2023-01-19T01:25:25.332Z,14.27
2023-01-19T01:27:53.131Z,11.38
2023-01-19T01:30:20.909Z,11.52
2023-01-19T01:32:48.230Z,10.90
2023-01-19T01:35:16.963Z,11.27
2023-01-19T01:37:44.505Z,12.73
2023-01-19T01:40:17.201Z,12.52
2023-01-19T01:42:44.608Z,12.70
2023-01-19T01:45:33.948Z,13.73
2023-01-19T01:48:23.922Z,10.85
2023-01-19T01:51:17.627Z,12.93
2023-01-19T01:53:47.506Z,11.02
2023-01-19T01:56:21.384Z,12.90
2023-01-19T01:58:50.068Z,12.55
2023-01-19T02:01:35.727Z,11.57
2023-01-19T02:04:03.119Z,12.98
2023-01-19T02:06:30.338Z,12.30
2023-01-19T02:09:23.526Z,14.30
2023-01-19T02:12:09.672Z,14.10
2023-01-19T02:14:39.627Z,12.73
2023-01-19T02:17:07.767Z,13.48
2023-01-19T02:19:42.403Z,13.63
2023-01-19T02:22:39.095Z,14.88
2023-01-19T02:25:07.272Z,15.88
2023-01-19T02:27:34.677Z,12.95
2023-01-19T02:30:03.905Z,12.82
2023-01-19T02:32:31.056Z,12.73
2023-01-19T02:34:58.448Z,13.15
2023-01-19T02:37:26.778Z,15.00
2023-01-19T02:39:58.201Z,12.77
2023-01-19T02:42:29.809Z,12.68
2023-01-19T02:44:57.846Z,13.35
2023-01-19T02:47:25.145Z,16.00
2023-01-19T02:49:59.759Z,12.95
2023-01-19T02:52:27.917Z,15.23
2023-01-19T02:55:22.492Z,15.73
2023-01-19T02:57:52.427Z,14.25
2023-01-19T03:00:50.763Z,13.32
2023-01-19T03:03:23.861Z,15.45
2023-01-19T03:05:57.398Z,14.18
2023-01-19T03:08:34.375Z,17.15
2023-01-19T03:11:11.810Z,15.48
2023-01-19T03:14:20.166Z,15.15
2023-01-19T03:16:59.638Z,16.15
2023-01-19T03:19:34.572Z,17.75
2023-01-19T03:22:07.687Z,15.07
2023-01-19T03:24:40.643Z,14.63
2023-01-19T03:27:16.599Z,16.23
2023-01-19T03:29:51.129Z,15.18
2023-01-19T03:34:49.190Z,16.58
2023-01-19T03:37:20.043Z,16.38
2023-01-19T03:39:47.419Z,17.25
2023-01-19T03:42:16.760Z,16.52
2023-01-19T03:44:45.441Z,15.18
2023-01-19T03:47:14.808Z,15.85
2023-01-19T03:49:45.464Z,18.35
2023-01-19T03:52:13.081Z,19.05
2023-01-19T03:54:41.550Z,17.55
2023-01-19T03:57:08.810Z,18.13
2023-01-19T03:59:36.130Z,17.65
2023-01-19T04:02:03.463Z,16.73
2023-01-19T04:04:30.562Z,19.77
2023-01-19T04:06:58.186Z,20.08
2023-01-19T04:09:26.070Z,19.15
2023-01-19T04:11:53.205Z,17.73
2023-01-19T04:14:20.282Z,19.08
2023-01-19T04:16:47.376Z,18.35
2023-01-19T04:19:14.522Z,19.67
2023-01-19T04:21:41.578Z,18.98
2023-01-19T04:24:10.452Z,15.93
2023-01-19T04:26:37.604Z,15.88
2023-01-19T04:29:04.692Z,20.38
2023-01-19T04:31:31.945Z,19.58
2023-01-19T04:33:59.009Z,18.08
2023-01-19T04:36:26.108Z,19.08
2023-01-19T04:38:53.188Z,20.60
2023-01-19T04:41:20.582Z,18.02
2023-01-19T04:43:48.421Z,17.27
2023-01-19T04:46:15.653Z,19.35
2023-01-19T04:48:42.843Z,18.13
2023-01-19T04:51:10.029Z,19.90
2023-01-19T04:53:37.141Z,18.73
2023-01-19T04:56:04.359Z,20.63
2023-01-19T04:58:31.463Z,20.05
2023-01-19T05:00:58.924Z,18.90
2023-01-19T05:03:26.702Z,20.98
2023-01-19T05:05:53.980Z,20.92
2023-01-19T05:08:21.251Z,19.10
2023-01-19T05:10:48.920Z,23.25
2023-01-19T05:13:16.043Z,20.25
2023-01-19T05:15:43.130Z,21.13
2023-01-19T05:18:10.470Z,23.15
2023-01-19T05:20:37.476Z,20.42
2023-01-19T05:23:04.569Z,21.42
2023-01-19T05:25:31.607Z,23.30
2023-01-19T05:27:58.707Z,20.30
2023-01-19T05:30:26.338Z,20.75
2023-01-19T05:32:53.389Z,23.83
2023-01-19T05:35:31.371Z,21.80
2023-01-19T05:38:02.626Z,21.27
2023-01-19T05:40:29.731Z,22.13
2023-01-19T05:43:01.366Z,25.05
2023-01-19T05:45:29.095Z,26.60
2023-01-19T05:47:56.209Z,25.33
2023-01-19T05:50:23.480Z,22.98
2023-01-19T05:52:53.394Z,24.63
2023-01-19T05:55:21.422Z,24.05
2023-01-19T05:57:48.477Z,24.83
2023-01-19T06:00:16.281Z,23.38
2023-01-19T06:02:43.831Z,27.65
2023-01-19T06:05:11.141Z,30.25
2023-01-19T06:07:38.242Z,25.02
2023-01-19T06:10:05.788Z,24.52
2023-01-19T06:12:32.960Z,26.77
2023-01-19T06:15:00.071Z,25.85
2023-01-19T06:17:27.178Z,25.75
2023-01-19T06:19:54.366Z,26.45
2023-01-19T06:22:21.553Z,26.60
2023-01-19T06:24:48.652Z,26.45
2023-01-19T06:27:15.741Z,26.00
2023-01-19T06:29:42.795Z,24.50
2023-01-19T06:32:09.999Z,25.75
2023-01-19T06:34:37.084Z,27.30
2023-01-19T06:37:04.218Z,24.23
2023-01-19T06:39:31.425Z,26.73
2023-01-19T06:41:58.715Z,29.30
2023-01-19T06:44:25.945Z,27.52
2023-01-19T06:47:15.738Z,30.65
2023-01-19T06:49:41.272Z,30.23
2023-01-19T06:52:16.075Z,32.67
2023-01-19T06:54:44.000Z,36.13
2023-01-19T06:57:13.071Z,36.55
2023-01-19T06:59:40.280Z,35.78
2023-01-19T07:02:26.967Z,35.08
2023-01-19T07:04:54.916Z,33.90
2023-01-19T07:07:21.942Z,33.00
2023-01-19T07:09:48.967Z,33.38
2023-01-19T07:12:16.060Z,36.47
2023-01-19T07:14:43.114Z,37.78
2023-01-19T07:17:10.996Z,33.67
2023-01-19T07:19:38.207Z,35.80
2023-01-19T07:22:05.310Z,36.47
2023-01-19T07:24:33.829Z,41.85
2023-01-19T07:27:01.015Z,35.85
2023-01-19T07:29:28.075Z,43.55
2023-01-19T07:31:55.226Z,34.05
2023-01-19T07:34:22.366Z,37.25
2023-01-19T07:36:49.529Z,32.60
2023-01-19T07:39:16.745Z,36.55
2023-01-19T07:41:43.831Z,37.55
2023-01-19T07:44:10.951Z,40.15
2023-01-19T07:46:38.014Z,34.67
2023-01-19T07:49:05.136Z,33.45
2023-01-19T07:51:32.386Z,34.22
2023-01-19T07:53:59.534Z,35.53
2023-01-19T07:56:28.068Z,32.00
2023-01-19T07:58:55.419Z,28.48
2023-01-19T08:01:22.895Z,31.08
2023-01-19T08:03:50.149Z,28.70
2023-01-19T08:06:23.734Z,31.40
2023-01-19T08:08:51.072Z,33.13
2023-01-19T08:11:18.152Z,30.85
2023-01-19T08:13:45.290Z,26.95
2023-01-19T08:16:12.473Z,28.38
2023-01-19T08:18:39.875Z,30.33
2023-01-19T08:21:06.958Z,27.50
2023-01-19T08:23:34.181Z,28.90
2023-01-19T08:26:01.638Z,24.67
2023-01-19T08:28:28.796Z,28.65
2023-01-19T08:30:55.959Z,33.10
2023-01-19T08:33:25.425Z,27.10
2023-01-19T08:35:54.120Z,28.63
2023-01-19T08:38:21.280Z,26.92
2023-01-19T08:40:49.502Z,26.35
2023-01-19T08:43:17.910Z,26.05
2023-01-19T08:45:51.794Z,26.15
2023-01-19T08:48:22.689Z,23.88
2023-01-19T08:50:51.639Z,25.35
2023-01-19T08:53:21.241Z,24.65
2023-01-19T08:55:48.315Z,21.30
2023-01-19T08:58:15.582Z,25.90
2023-01-19T09:00:43.048Z,22.55
2023-01-19T09:03:14.287Z,19.70
2023-01-19T09:05:42.383Z,23.00
2023-01-19T09:08:11.954Z,24.95
2023-01-19T09:10:44.226Z,21.98
2023-01-19T09:13:12.103Z,24.00
2023-01-19T09:15:40.124Z,21.17
2023-01-19T09:18:10.622Z,21.92
2023-01-19T09:20:39.243Z,22.13
2023-01-19T09:23:06.472Z,24.30
2023-01-19T09:25:33.699Z,25.25
2023-01-19T09:28:01.311Z,26.02
2023-01-19T09:30:29.006Z,22.35
2023-01-19T09:32:57.543Z,29.90
2023-01-19T09:35:25.755Z,26.27
2023-01-19T09:37:52.906Z,24.15
2023-01-19T09:40:21.262Z,23.83
2023-01-19T09:43:04.720Z,25.50
2023-01-19T09:45:50.064Z,24.63
2023-01-19T09:48:31.642Z,25.20
2023-01-19T09:51:03.022Z,23.38
2023-01-19T09:53:55.785Z,24.05
2023-01-19T09:56:24.121Z,21.38
2023-01-19T09:58:52.348Z,22.98
2023-01-19T10:01:46.397Z,22.95
2023-01-19T10:04:26.696Z,20.83
2023-01-19T10:07:10.114Z,20.95
2023-01-19T10:09:48.031Z,19.85
2023-01-19T10:12:27.139Z,19.25
2023-01-19T10:15:02.353Z,25.33
2023-01-19T10:17:53.026Z,22.38
2023-01-19T10:20:56.726Z,19.88
2023-01-19T10:23:50.839Z,19.95
2023-01-19T10:26:20.144Z,22.52
2023-01-19T10:28:49.397Z,19.60
2023-01-19T10:31:21.494Z,20.55
2023-01-19T10:33:50.795Z,25.35
2023-01-19T10:36:19.725Z,28.40
2023-01-19T10:38:48.575Z,24.63
2023-01-19T10:41:24.432Z,23.40
2023-01-19T10:44:01.570Z,24.95
2023-01-19T10:46:45.783Z,24.88
2023-01-19T10:49:40.048Z,26.05
2023-01-19T10:52:19.036Z,25.53
2023-01-19T10:54:48.641Z,27.88
2023-01-19T10:57:29.853Z,23.42
2023-01-19T10:59:58.217Z,23.23
2023-01-19T11:02:29.128Z,25.55
2023-01-19T11:05:02.801Z,23.00
2023-01-19T11:07:34.493Z,21.00
2023-01-19T11:10:17.705Z,21.20
2023-01-19T11:12:46.696Z,23.35
2023-01-19T11:15:23.681Z,22.05
2023-01-19T11:17:52.135Z,20.83
2023-01-19T11:20:21.404Z,16.80
2023-01-19T11:22:49.135Z,16.90
2023-01-19T11:25:31.170Z,17.02
2023-01-19T11:27:58.384Z,17.38
2023-01-19T11:30:26.626Z,17.25
2023-01-19T11:32:54.765Z,17.27
2023-01-19T11:35:41.154Z,16.55
2023-01-19T11:38:19.115Z,16.90
2023-01-19T11:40:56.260Z,17.52
2023-01-19T11:43:30.156Z,17.13
2023-01-19T11:46:02.143Z,24.92
2023-01-19T11:48:37.305Z,19.25
2023-01-19T11:51:09.514Z,21.38
2023-01-19T11:53:36.578Z,21.48
2023-01-19T11:56:12.087Z,28.80
2023-01-19T11:58:41.818Z,26.05
2023-01-19T12:01:30.431Z,20.20
2023-01-19T12:04:10.662Z,17.98
2023-01-19T12:06:41.890Z,16.90
2023-01-19T12:09:25.400Z,25.42
2023-01-19T12:12:04.385Z,18.23
2023-01-19T12:14:54.902Z,16.35
2023-01-19T12:17:36.704Z,19.25
2023-01-19T12:20:22.287Z,25.73
2023-01-19T12:22:59.798Z,15.65
2023-01-19T12:25:43.760Z,22.10
2023-01-19T12:28:14.695Z,27.35
2023-01-19T12:30:42.387Z,17.88
2023-01-19T12:33:21.544Z,19.00
2023-01-19T12:35:58.321Z,22.35
2023-01-19T12:38:36.480Z,17.25
2023-01-19T12:41:18.739Z,18.38
2023-01-19T12:43:46.630Z,18.73
2023-01-19T12:46:29.674Z,15.77
2023-01-19T12:49:22.669Z,16.73
2023-01-19T12:51:52.751Z,17.45
2023-01-19T12:54:42.378Z,20.42
2023-01-19T12:57:19.408Z,13.18
2023-01-19T12:59:47.342Z,16.58
2023-01-19T13:02:20.511Z,17.73
2023-01-19T13:05:09.716Z,20.25
2023-01-19T13:08:15.631Z,19.20
2023-01-19T13:11:02.364Z,18.83
2023-01-19T13:13:48.065Z,20.35
2023-01-19T13:16:27.759Z,16.42
2023-01-19T13:19:02.502Z,16.42
2023-01-19T13:21:36.269Z,17.42
2023-01-19T13:24:09.400Z,22.90
2023-01-19T13:26:52.898Z,21.63
2023-01-19T13:29:28.882Z,16.45
2023-01-19T13:32:02.973Z,25.75
2023-01-19T13:35:03.133Z,21.95
2023-01-19T13:37:41.721Z,19.60
2023-01-19T13:40:20.855Z,20.70
2023-01-19T13:42:50.948Z,25.33
2023-01-19T13:45:37.218Z,22.27
2023-01-19T13:48:13.874Z,25.58
2023-01-19T13:50:40.976Z,21.70
2023-01-19T13:53:20.880Z,20.23
2023-01-19T13:55:48.330Z,22.52
2023-01-19T13:58:22.802Z,23.23
2023-01-19T14:03:23.350Z,24.55
2023-01-19T14:05:52.648Z,22.95
2023-01-19T14:08:21.031Z,20.33
2023-01-19T14:10:54.138Z,25.85
2023-01-19T14:13:23.140Z,19.90
2023-01-19T14:15:55.790Z,23.25
2023-01-19T14:18:25.675Z,22.35
2023-01-19T14:21:19.025Z,24.30
2023-01-19T14:23:49.153Z,27.67
2023-01-19T14:26:38.347Z,20.63
2023-01-19T14:29:23.677Z,22.42
2023-01-19T14:32:20.050Z,19.83
2023-01-19T14:35:04.627Z,20.70
2023-01-19T14:37:35.132Z,20.30
2023-01-19T14:40:13.114Z,18.48
2023-01-19T14:42:43.298Z,24.10
2023-01-19T14:45:20.959Z,23.48
2023-01-19T14:47:59.996Z,24.88
2023-01-19T14:50:30.947Z,20.33
2023-01-19T14:53:02.487Z,24.00
2023-01-19T14:55:36.795Z,23.48
2023-01-19T14:58:12.016Z,20.75
2023-01-19T15:00:40.159Z,25.27
2023-01-19T15:03:10.099Z,22.77
2023-01-19T15:05:38.942Z,21.80
2023-01-19T15:08:07.177Z,21.60
2023-01-19T15:10:36.590Z,21.65
2023-01-19T15:13:04.992Z,28.73
2023-01-19T15:15:34.153Z,21.67
2023-01-19T15:18:04.258Z,23.08
2023-01-19T15:20:31.328Z,23.52
2023-01-19T15:22:58.450Z,22.52
2023-01-19T15:25:28.841Z,21.90
2023-01-19T15:27:59.659Z,22.90
2023-01-19T15:30:33.683Z,20.38
2023-01-19T15:33:02.420Z,23.60
2023-01-19T15:35:29.597Z,24.10
2023-01-19T15:37:56.918Z,22.15
2023-01-19T15:40:24.370Z,23.83
2023-01-19T15:42:51.435Z,18.40
2023-01-19T15:45:39.825Z,20.75
2023-01-19T15:48:09.082Z,16.55
2023-01-19T15:50:44.317Z,20.30
2023-01-19T15:53:17.198Z,18.23
2023-01-19T15:55:45.398Z,19.60
2023-01-19T15:58:14.350Z,22.80
2023-01-19T16:00:41.883Z,23.88
2023-01-19T16:03:10.611Z,25.95
2023-01-19T16:05:43.359Z,23.83
2023-01-19T16:08:11.965Z,23.45
2023-01-19T16:10:40.522Z,23.08
2023-01-19T16:13:08.562Z,25.08
2023-01-19T16:15:37.092Z,27.63
2023-01-19T16:18:05.195Z,25.77
2023-01-19T16:20:32.922Z,30.65
2023-01-19T16:23:13.897Z,31.63
2023-01-19T16:25:41.552Z,27.05
2023-01-19T16:28:09.274Z,25.23
2023-01-19T16:30:36.603Z,24.15
2023-01-19T16:33:05.407Z,19.95
2023-01-19T16:35:32.682Z,27.67
2023-01-19T16:37:59.856Z,22.08
2023-01-19T16:40:28.400Z,20.83
2023-01-19T16:42:55.867Z,21.48
2023-01-19T16:45:23.400Z,25.52
2023-01-19T16:47:52.637Z,24.63
2023-01-19T16:50:20.355Z,24.38
2023-01-19T16:52:47.632Z,20.02
2023-01-19T16:55:14.952Z,22.80
2023-01-19T16:57:42.417Z,20.10
2023-01-19T17:00:10.754Z,19.30
2023-01-19T17:02:38.398Z,18.10
2023-01-19T17:05:06.382Z,18.27
2023-01-19T17:07:35.119Z,17.02
2023-01-19T17:10:02.577Z,19.75
2023-01-19T17:12:32.241Z,16.25
2023-01-19T17:15:00.111Z,18.55
2023-01-19T17:17:27.547Z,24.13
2023-01-19T17:19:55.002Z,22.05
2023-01-19T17:22:24.355Z,22.30
2023-01-19T17:24:51.661Z,19.85
2023-01-19T17:27:18.867Z,18.15
2023-01-19T17:29:48.701Z,16.17
2023-01-19T17:32:17.609Z,19.50
2023-01-19T17:34:47.365Z,17.02
2023-01-19T17:37:15.594Z,20.23
2023-01-19T17:39:43.498Z,19.45
2023-01-19T17:42:11.136Z,15.40
2023-01-19T17:44:40.355Z,19.10
2023-01-19T17:47:08.410Z,17.48
2023-01-19T17:49:37.695Z,15.40
2023-01-19T17:52:05.739Z,17.40
2023-01-19T17:54:34.494Z,17.20
2023-01-19T17:57:02.565Z,21.80
2023-01-19T17:59:30.566Z,15.20
2023-01-19T18:02:00.301Z,14.55
2023-01-19T18:04:27.617Z,18.17
2023-01-19T18:06:59.242Z,16.08
2023-01-19T18:09:28.651Z,17.50
2023-01-19T18:11:56.366Z,17.92
2023-01-19T18:14:24.303Z,20.67
2023-01-19T18:16:54.430Z,20.90
2023-01-19T18:19:25.767Z,17.38
2023-01-19T18:21:53.831Z,16.45
2023-01-19T18:24:22.904Z,20.35
2023-01-19T18:26:51.016Z,19.05
2023-01-19T18:29:20.059Z,18.70
2023-01-19T18:31:48.375Z,19.15
2023-01-19T18:34:16.109Z,19.65
2023-01-19T18:36:45.054Z,20.23
2023-01-19T18:39:16.141Z,21.08
2023-01-19T18:41:44.173Z,20.70
2023-01-19T18:44:13.473Z,18.80
2023-01-19T18:46:43.164Z,20.17
2023-01-19T18:49:11.755Z,27.63
2023-01-19T18:51:41.286Z,26.48
2023-01-19T18:54:12.962Z,21.23
2023-01-19T18:56:41.024Z,21.60
2023-01-19T18:59:08.736Z,17.33
2023-01-19T19:01:37.119Z,17.00
2023-01-19T19:04:05.221Z,17.58
2023-01-19T19:06:33.155Z,19.20
2023-01-19T19:09:01.135Z,18.20
2023-01-19T19:11:29.482Z,17.48
2023-01-19T19:14:00.614Z,17.33
2023-01-19T19:16:29.491Z,17.00
2023-01-19T19:18:57.363Z,16.70
2023-01-19T19:21:26.246Z,18.58
2023-01-19T19:23:58.651Z,23.30
2023-01-19T19:26:29.257Z,21.35
2023-01-19T19:28:57.241Z,27.15
2023-01-19T19:31:26.766Z,23.38
2023-01-19T19:33:56.284Z,43.00
2023-01-19T19:36:26.869Z,20.38
2023-01-19T19:38:54.980Z,23.95
2023-01-19T19:41:25.466Z,21.50
2023-01-19T19:43:55.824Z,20.13
2023-01-19T19:46:25.086Z,21.05
2023-01-19T19:48:53.950Z,17.17
2023-01-19T19:51:26.131Z,20.33
2023-01-19T19:53:55.976Z,23.52
2023-01-19T19:56:25.608Z,22.65
2023-01-19T19:58:55.782Z,22.00
2023-01-19T20:01:29.440Z,20.45
2023-01-19T20:04:04.520Z,22.13
2023-01-19T20:06:39.472Z,22.92
2023-01-19T20:09:12.801Z,25.17
2023-01-19T20:11:42.245Z,23.08
2023-01-19T20:14:12.394Z,21.63
2023-01-19T20:16:40.979Z,21.90
2023-01-19T20:19:09.222Z,23.33
2023-01-19T20:21:44.677Z,16.60
2023-01-19T20:24:16.778Z,17.25
2023-01-19T20:26:49.437Z,18.17
2023-01-19T20:29:18.006Z,24.55
2023-01-19T20:31:56.186Z,17.85
2023-01-19T20:34:26.756Z,20.10
2023-01-19T20:36:55.265Z,18.48
2023-01-19T20:39:24.036Z,15.25
2023-01-19T20:41:58.847Z,16.77
2023-01-19T20:44:27.528Z,18.27
2023-01-19T20:47:12.034Z,18.67
2023-01-19T20:49:42.745Z,17.13
2023-01-19T20:52:13.733Z,50.80
2023-01-19T20:54:42.446Z,38.78
2023-01-19T20:57:10.409Z,19.52
2023-01-19T20:59:38.896Z,16.17
2023-01-19T21:02:12.962Z,13.95
2023-01-19T21:04:40.854Z,17.95
2023-01-19T21:07:09.363Z,14.90
2023-01-19T21:09:38.381Z,16.65
2023-01-19T21:12:08.287Z,13.57
2023-01-19T21:14:36.373Z,16.20
2023-01-19T21:17:04.011Z,14.23
2023-01-19T21:19:31.202Z,16.48
2023-01-19T21:21:58.304Z,16.38
2023-01-19T21:24:25.648Z,15.75
2023-01-19T21:26:52.894Z,16.55
2023-01-19T21:29:20.523Z,19.73
2023-01-19T21:31:48.006Z,18.45
2023-01-19T21:34:15.280Z,18.38
2023-01-19T21:36:45.053Z,24.50
2023-01-19T21:39:12.340Z,23.88
2023-01-19T21:41:40.464Z,17.98
2023-01-19T21:44:07.616Z,19.60
2023-01-19T21:46:36.867Z,19.20
2023-01-19T21:49:07.097Z,19.85
2023-01-19T21:51:37.111Z,22.48
2023-01-19T21:54:06.210Z,19.50
2023-01-19T21:56:34.857Z,15.68
2023-01-19T21:59:03.588Z,17.40
2023-01-19T22:01:35.394Z,14.13
2023-01-19T22:04:02.616Z,18.45
2023-01-19T22:06:29.739Z,13.38
2023-01-19T22:08:58.553Z,12.15
2023-01-19T22:11:25.736Z,11.73
2023-01-19T22:13:53.178Z,20.15
2023-01-19T22:16:22.510Z,19.70
2023-01-19T22:18:54.242Z,12.02
2023-01-19T22:21:24.336Z,20.70
2023-01-19T22:23:53.903Z,15.70
2023-01-19T22:26:21.340Z,15.15
2023-01-19T22:28:48.887Z,15.85
2023-01-19T22:31:17.660Z,16.45
2023-01-19T22:33:45.995Z,19.30
2023-01-19T22:36:14.861Z,19.83
2023-01-19T22:38:43.303Z,21.55
2023-01-19T22:41:18.213Z,19.85
2023-01-19T22:43:45.411Z,22.05
2023-01-19T22:46:12.654Z,22.77
2023-01-19T22:48:40.780Z,21.80
2023-01-19T22:51:08.443Z,20.35
2023-01-19T22:53:35.641Z,20.23
2023-01-19T22:56:12.555Z,17.55
2023-01-19T22:58:44.362Z,14.55
2023-01-19T23:01:14.297Z,15.73
2023-01-19T23:03:42.099Z,16.05
2023-01-19T23:06:12.547Z,16.23
2023-01-19T23:08:40.749Z,19.35
2023-01-19T23:11:17.849Z,17.10
2023-01-19T23:13:46.040Z,16.83
2023-01-19T23:16:14.168Z,18.05
2023-01-19T23:18:42.694Z,17.92
2023-01-19T23:21:12.738Z,19.02
2023-01-19T23:23:40.953Z,21.20
2023-01-19T23:26:10.916Z,23.40
2023-01-19T23:28:39.351Z,25.10
2023-01-19T23:31:18.096Z,23.75
2023-01-19T23:33:45.451Z,18.98
2023-01-19T23:36:13.144Z,19.08
2023-01-19T23:38:40.686Z,18.48
2023-01-19T23:41:08.915Z,18.33
2023-01-19T23:43:35.996Z,17.30
2023-01-19T23:46:08.772Z,16.52
2023-01-19T23:48:36.744Z,23.83
2023-01-19T23:51:15.915Z,21.50
2023-01-19T23:53:44.122Z,18.67
2023-01-19T23:56:14.709Z,19.98
2023-01-19T23:58:41.939Z,19.85
